Elba, Louisiana
Current Conditions -  °F | °C
As of 8:55 PM on Sunday 21 Dec 2014 (Local Time) from KHZR Reporting Station
Haze Haze  
Wind Chill: 51°   Ceiling: 9500
Heat Index: 51°   Visibility: 5mi
Dew Point: 50°   Wind: 0mph
Humidity: 96%   Direction: NA
Pressure: 29.97"   Gusts: NA
Location:  30.6648°N, 91.7944°W
Report Text: KHZR 220255Z AUTO 00000KT 5SM BR OVC095 11/10 A2997 RMK AO2 T01070101
Loading
Personal Weather Stations






























Interactive Weather Map New forecast layout! Learn more

10-Day Weather Forecast

Advertisements
Track Severe Weather on mobile